sensor_id;sensor_type;location;lat;lon;timestamp;P1;durP1;ratioP1;P2;durP2;ratioP2
23682;SDS011;24897;53.514;10.482;2023-02-28T00:02:19;43.33;;;39.03;;
23682;SDS011;24897;53.514;10.482;2023-02-28T00:05:03;44.23;;;39.83;;
23682;SDS011;24897;53.514;10.482;2023-02-28T00:07:48;43.13;;;38.83;;
23682;SDS011;24897;53.514;10.482;2023-02-28T00:10:32;42.87;;;38.77;;
23682;SDS011;24897;53.514;10.482;2023-02-28T00:13:17;45.03;;;40.40;;
23682;SDS011;24897;53.514;10.482;2023-02-28T00:16:02;46.07;;;41.53;;
23682;SDS011;24897;53.514;10.482;2023-02-28T00:18:48;44.07;;;39.77;;
23682;SDS011;24897;53.514;10.482;2023-02-28T00:21:33;45.33;;;41.07;;
23682;SDS011;24897;53.514;10.482;2023-02-28T00:24:19;46.27;;;41.87;;
23682;SDS011;24897;53.514;10.482;2023-02-28T00:27:03;46.97;;;42.03;;
23682;SDS011;24897;53.514;10.482;2023-02-28T00:29:47;47.43;;;42.90;;
23682;SDS011;24897;53.514;10.482;2023-02-28T00:32:31;46.73;;;41.63;;
23682;SDS011;24897;53.514;10.482;2023-02-28T00:35:18;46.93;;;42.20;;
23682;SDS011;24897;53.514;10.482;2023-02-28T00:38:02;47.70;;;42.90;;
23682;SDS011;24897;53.514;10.482;2023-02-28T00:40:46;46.77;;;42.17;;
23682;SDS011;24897;53.514;10.482;2023-02-28T00:43:34;47.33;;;42.57;;
23682;SDS011;24897;53.514;10.482;2023-02-28T00:46:20;48.00;;;43.10;;
23682;SDS011;24897;53.514;10.482;2023-02-28T00:49:04;46.80;;;42.00;;
23682;SDS011;24897;53.514;10.482;2023-02-28T00:51:49;46.87;;;42.13;;
23682;SDS011;24897;53.514;10.482;2023-02-28T00:54:33;48.87;;;43.70;;
23682;SDS011;24897;53.514;10.482;2023-02-28T00:57:17;48.60;;;43.50;;
23682;SDS011;24897;53.514;10.482;2023-02-28T01:00:01;50.20;;;44.97;;
23682;SDS011;24897;53.514;10.482;2023-02-28T01:02:47;50.67;;;45.30;;
23682;SDS011;24897;53.514;10.482;2023-02-28T01:05:31;50.80;;;45.20;;
23682;SDS011;24897;53.514;10.482;2023-02-28T01:08:15;51.37;;;45.77;;
23682;SDS011;24897;53.514;10.482;2023-02-28T01:11:07;52.97;;;46.40;;
23682;SDS011;24897;53.514;10.482;2023-02-28T01:13:52;51.20;;;45.57;;
23682;SDS011;24897;53.514;10.482;2023-02-28T01:16:36;50.63;;;44.73;;
23682;SDS011;24897;53.514;10.482;2023-02-28T01:19:20;53.80;;;45.87;;
23682;SDS011;24897;53.514;10.482;2023-02-28T01:22:05;55.00;;;46.13;;
23682;SDS011;24897;53.514;10.482;2023-02-28T01:24:50;50.23;;;44.87;;
23682;SDS011;24897;53.514;10.482;2023-02-28T01:27:34;51.47;;;45.53;;
23682;SDS011;24897;53.514;10.482;2023-02-28T01:30:19;50.70;;;45.03;;
23682;SDS011;24897;53.514;10.482;2023-02-28T01:33:03;50.80;;;45.47;;
23682;SDS011;24897;53.514;10.482;2023-02-28T01:35:47;52.73;;;47.23;;
23682;SDS011;24897;53.514;10.482;2023-02-28T01:38:32;52.57;;;46.97;;
23682;SDS011;24897;53.514;10.482;2023-02-28T01:41:19;52.20;;;46.63;;
23682;SDS011;24897;53.514;10.482;2023-02-28T01:47:32;51.47;;;45.73;;
23682;SDS011;24897;53.514;10.482;2023-02-28T01:50:20;51.20;;;45.80;;
23682;SDS011;24897;53.514;10.482;2023-02-28T01:53:10;50.50;;;45.00;;
23682;SDS011;24897;53.514;10.482;2023-02-28T01:55:57;50.17;;;44.87;;
23682;SDS011;24897;53.514;10.482;2023-02-28T01:58:42;56.60;;;45.80;;
23682;SDS011;24897;53.514;10.482;2023-02-28T02:01:26;50.80;;;44.87;;
23682;SDS011;24897;53.514;10.482;2023-02-28T02:04:12;53.40;;;46.67;;
23682;SDS011;24897;53.514;10.482;2023-02-28T02:06:56;52.53;;;46.83;;
23682;SDS011;24897;53.514;10.482;2023-02-28T02:09:42;52.70;;;45.90;;
23682;SDS011;24897;53.514;10.482;2023-02-28T02:12:43;53.10;;;46.20;;
23682;SDS011;24897;53.514;10.482;2023-02-28T02:16:06;54.90;;;47.00;;
23682;SDS011;24897;53.514;10.482;2023-02-28T02:19:41;54.27;;;46.20;;
23682;SDS011;24897;53.514;10.482;2023-02-28T02:28:22;59.70;;;48.20;;
23682;SDS011;24897;53.514;10.482;2023-02-28T02:34:29;59.23;;;47.37;;
23682;SDS011;24897;53.514;10.482;2023-02-28T02:41:23;59.10;;;47.40;;
23682;SDS011;24897;53.514;10.482;2023-02-28T02:44:34;57.03;;;46.47;;
23682;SDS011;24897;53.514;10.482;2023-02-28T02:47:29;56.97;;;46.80;;
23682;SDS011;24897;53.514;10.482;2023-02-28T02:50:22;59.67;;;47.00;;
23682;SDS011;24897;53.514;10.482;2023-02-28T02:53:10;55.13;;;45.07;;
23682;SDS011;24897;53.514;10.482;2023-02-28T02:55:56;56.70;;;45.83;;
23682;SDS011;24897;53.514;10.482;2023-02-28T02:58:43;55.20;;;44.80;;
23682;SDS011;24897;53.514;10.482;2023-02-28T03:01:28;54.37;;;43.67;;
23682;SDS011;24897;53.514;10.482;2023-02-28T03:04:19;55.17;;;43.73;;
23682;SDS011;24897;53.514;10.482;2023-02-28T03:07:06;55.73;;;45.30;;
23682;SDS011;24897;53.514;10.482;2023-02-28T03:09:51;56.90;;;44.93;;
23682;SDS011;24897;53.514;10.482;2023-02-28T03:12:40;56.07;;;45.07;;
23682;SDS011;24897;53.514;10.482;2023-02-28T03:15:33;54.93;;;44.43;;
23682;SDS011;24897;53.514;10.482;2023-02-28T03:18:40;54.67;;;45.70;;
23682;SDS011;24897;53.514;10.482;2023-02-28T03:21:46;53.63;;;45.40;;
23682;SDS011;24897;53.514;10.482;2023-02-28T03:30:42;54.60;;;42.93;;
23682;SDS011;24897;53.514;10.482;2023-02-28T03:36:39;55.53;;;43.27;;
23682;SDS011;24897;53.514;10.482;2023-02-28T03:39:29;52.90;;;43.57;;
23682;SDS011;24897;53.514;10.482;2023-02-28T03:42:25;55.03;;;44.67;;
23682;SDS011;24897;53.514;10.482;2023-02-28T03:45:19;55.70;;;44.57;;
23682;SDS011;24897;53.514;10.482;2023-02-28T03:48:15;56.63;;;44.40;;
23682;SDS011;24897;53.514;10.482;2023-02-28T03:51:12;52.97;;;43.00;;
23682;SDS011;24897;53.514;10.482;2023-02-28T03:54:06;52.20;;;44.37;;
23682;SDS011;24897;53.514;10.482;2023-02-28T03:57:04;55.27;;;43.70;;
23682;SDS011;24897;53.514;10.482;2023-02-28T03:59:56;55.40;;;44.57;;
23682;SDS011;24897;53.514;10.482;2023-02-28T04:02:49;55.57;;;46.27;;
23682;SDS011;24897;53.514;10.482;2023-02-28T04:05:54;52.73;;;45.17;;
23682;SDS011;24897;53.514;10.482;2023-02-28T04:08:40;55.17;;;43.57;;
23682;SDS011;24897;53.514;10.482;2023-02-28T04:11:42;52.30;;;44.00;;
23682;SDS011;24897;53.514;10.482;2023-02-28T04:14:31;56.17;;;44.40;;
23682;SDS011;24897;53.514;10.482;2023-02-28T04:17:16;52.90;;;44.23;;
23682;SDS011;24897;53.514;10.482;2023-02-28T04:20:00;54.23;;;45.53;;
23682;SDS011;24897;53.514;10.482;2023-02-28T04:22:44;52.90;;;44.03;;
23682;SDS011;24897;53.514;10.482;2023-02-28T04:25:28;54.00;;;44.97;;
23682;SDS011;24897;53.514;10.482;2023-02-28T04:28:13;54.60;;;44.67;;
23682;SDS011;24897;53.514;10.482;2023-02-28T04:30:57;59.27;;;47.10;;
23682;SDS011;24897;53.514;10.482;2023-02-28T04:33:43;57.93;;;46.50;;
23682;SDS011;24897;53.514;10.482;2023-02-28T04:36:27;54.10;;;44.83;;
23682;SDS011;24897;53.514;10.482;2023-02-28T04:39:12;57.23;;;45.73;;
23682;SDS011;24897;53.514;10.482;2023-02-28T04:41:56;56.60;;;44.60;;
23682;SDS011;24897;53.514;10.482;2023-02-28T04:44:40;58.90;;;45.73;;
23682;SDS011;24897;53.514;10.482;2023-02-28T04:47:25;57.33;;;45.50;;
23682;SDS011;24897;53.514;10.482;2023-02-28T04:50:09;55.77;;;44.33;;
23682;SDS011;24897;53.514;10.482;2023-02-28T04:52:53;57.33;;;44.57;;
23682;SDS011;24897;53.514;10.482;2023-02-28T04:55:38;55.67;;;43.67;;
23682;SDS011;24897;53.514;10.482;2023-02-28T04:58:24;59.67;;;44.50;;
23682;SDS011;24897;53.514;10.482;2023-02-28T05:01:25;56.47;;;44.97;;
23682;SDS011;24897;53.514;10.482;2023-02-28T05:04:11;54.07;;;44.30;;
23682;SDS011;24897;53.514;10.482;2023-02-28T05:06:55;55.73;;;42.07;;
23682;SDS011;24897;53.514;10.482;2023-02-28T05:09:40;52.87;;;43.77;;
23682;SDS011;24897;53.514;10.482;2023-02-28T05:12:24;52.03;;;43.57;;
23682;SDS011;24897;53.514;10.482;2023-02-28T05:15:10;53.73;;;43.60;;
23682;SDS011;24897;53.514;10.482;2023-02-28T05:17:57;54.23;;;44.27;;
23682;SDS011;24897;53.514;10.482;2023-02-28T05:20:42;54.53;;;42.80;;
23682;SDS011;24897;53.514;10.482;2023-02-28T05:23:26;52.40;;;42.73;;
23682;SDS011;24897;53.514;10.482;2023-02-28T05:26:11;59.73;;;44.10;;
23682;SDS011;24897;53.514;10.482;2023-02-28T05:28:55;53.23;;;43.40;;
23682;SDS011;24897;53.514;10.482;2023-02-28T05:31:40;57.10;;;43.97;;
23682;SDS011;24897;53.514;10.482;2023-02-28T05:34:24;53.50;;;43.50;;
23682;SDS011;24897;53.514;10.482;2023-02-28T05:37:10;57.47;;;44.07;;
23682;SDS011;24897;53.514;10.482;2023-02-28T05:39:56;58.17;;;45.37;;
23682;SDS011;24897;53.514;10.482;2023-02-28T05:42:40;66.47;;;47.80;;
23682;SDS011;24897;53.514;10.482;2023-02-28T05:45:25;63.90;;;49.70;;
23682;SDS011;24897;53.514;10.482;2023-02-28T05:48:09;62.67;;;47.00;;
23682;SDS011;24897;53.514;10.482;2023-02-28T05:50:54;60.77;;;46.03;;
23682;SDS011;24897;53.514;10.482;2023-02-28T05:53:40;56.77;;;45.50;;
23682;SDS011;24897;53.514;10.482;2023-02-28T05:56:25;60.23;;;45.87;;
23682;SDS011;24897;53.514;10.482;2023-02-28T05:59:09;58.93;;;46.80;;
23682;SDS011;24897;53.514;10.482;2023-02-28T06:01:54;59.17;;;46.47;;
23682;SDS011;24897;53.514;10.482;2023-02-28T06:04:38;61.43;;;46.10;;
23682;SDS011;24897;53.514;10.482;2023-02-28T06:07:24;59.53;;;47.93;;
23682;SDS011;24897;53.514;10.482;2023-02-28T06:10:09;64.20;;;49.73;;
23682;SDS011;24897;53.514;10.482;2023-02-28T06:12:54;66.00;;;50.83;;
23682;SDS011;24897;53.514;10.482;2023-02-28T06:15:38;65.30;;;49.20;;
23682;SDS011;24897;53.514;10.482;2023-02-28T06:18:22;61.90;;;48.50;;
23682;SDS011;24897;53.514;10.482;2023-02-28T06:21:06;61.43;;;47.40;;
23682;SDS011;24897;53.514;10.482;2023-02-28T06:23:52;58.40;;;46.67;;
23682;SDS011;24897;53.514;10.482;2023-02-28T06:26:37;59.13;;;46.23;;
23682;SDS011;24897;53.514;10.482;2023-02-28T06:29:21;57.97;;;45.07;;
23682;SDS011;24897;53.514;10.482;2023-02-28T06:32:05;56.87;;;46.03;;
23682;SDS011;24897;53.514;10.482;2023-02-28T06:34:50;55.77;;;43.80;;
23682;SDS011;24897;53.514;10.482;2023-02-28T06:37:35;55.83;;;44.27;;
23682;SDS011;24897;53.514;10.482;2023-02-28T06:40:19;55.20;;;43.73;;
23682;SDS011;24897;53.514;10.482;2023-02-28T06:43:04;55.20;;;44.50;;
23682;SDS011;24897;53.514;10.482;2023-02-28T06:45:48;56.90;;;44.60;;
23682;SDS011;24897;53.514;10.482;2023-02-28T06:48:33;57.43;;;47.57;;
23682;SDS011;24897;53.514;10.482;2023-02-28T06:51:19;57.17;;;45.83;;
23682;SDS011;24897;53.514;10.482;2023-02-28T06:54:06;62.20;;;47.10;;
23682;SDS011;24897;53.514;10.482;2023-02-28T06:56:52;60.60;;;46.73;;
23682;SDS011;24897;53.514;10.482;2023-02-28T06:59:37;59.83;;;48.17;;
23682;SDS011;24897;53.514;10.482;2023-02-28T07:02:22;61.73;;;48.70;;
23682;SDS011;24897;53.514;10.482;2023-02-28T07:05:06;59.17;;;48.77;;
23682;SDS011;24897;53.514;10.482;2023-02-28T07:07:51;65.47;;;52.07;;
23682;SDS011;24897;53.514;10.482;2023-02-28T07:10:39;68.23;;;54.60;;
23682;SDS011;24897;53.514;10.482;2023-02-28T07:13:24;70.90;;;55.60;;
23682;SDS011;24897;53.514;10.482;2023-02-28T07:16:09;70.93;;;54.70;;
23682;SDS011;24897;53.514;10.482;2023-02-28T07:18:55;65.93;;;54.20;;
23682;SDS011;24897;53.514;10.482;2023-02-28T07:21:39;69.00;;;54.97;;
23682;SDS011;24897;53.514;10.482;2023-02-28T07:24:23;68.30;;;54.60;;
23682;SDS011;24897;53.514;10.482;2023-02-28T07:27:11;66.77;;;54.67;;
23682;SDS011;24897;53.514;10.482;2023-02-28T07:29:56;68.87;;;54.90;;
23682;SDS011;24897;53.514;10.482;2023-02-28T07:32:40;65.47;;;51.90;;
23682;SDS011;24897;53.514;10.482;2023-02-28T07:35:24;66.43;;;52.87;;
23682;SDS011;24897;53.514;10.482;2023-02-28T07:38:09;67.00;;;51.83;;
23682;SDS011;24897;53.514;10.482;2023-02-28T07:40:53;63.30;;;50.27;;
23682;SDS011;24897;53.514;10.482;2023-02-28T07:43:37;65.00;;;49.17;;
23682;SDS011;24897;53.514;10.482;2023-02-28T07:46:21;64.87;;;49.57;;
23682;SDS011;24897;53.514;10.482;2023-02-28T07:49:06;62.47;;;48.67;;
23682;SDS011;24897;53.514;10.482;2023-02-28T07:51:50;66.30;;;48.97;;
23682;SDS011;24897;53.514;10.482;2023-02-28T07:54:34;61.30;;;48.23;;
23682;SDS011;24897;53.514;10.482;2023-02-28T07:57:18;58.20;;;46.53;;
23682;SDS011;24897;53.514;10.482;2023-02-28T08:00:03;57.20;;;44.17;;
23682;SDS011;24897;53.514;10.482;2023-02-28T08:02:48;50.70;;;41.53;;
23682;SDS011;24897;53.514;10.482;2023-02-28T08:05:33;55.53;;;41.57;;
23682;SDS011;24897;53.514;10.482;2023-02-28T08:08:22;51.67;;;40.87;;
23682;SDS011;24897;53.514;10.482;2023-02-28T08:11:06;50.17;;;40.57;;
23682;SDS011;24897;53.514;10.482;2023-02-28T08:13:50;47.77;;;38.03;;
23682;SDS011;24897;53.514;10.482;2023-02-28T08:16:34;43.60;;;36.93;;
23682;SDS011;24897;53.514;10.482;2023-02-28T08:19:19;44.77;;;36.83;;
23682;SDS011;24897;53.514;10.482;2023-02-28T08:22:03;42.37;;;36.47;;
23682;SDS011;24897;53.514;10.482;2023-02-28T08:24:47;41.93;;;35.90;;
23682;SDS011;24897;53.514;10.482;2023-02-28T08:27:33;41.70;;;35.10;;
23682;SDS011;24897;53.514;10.482;2023-02-28T08:30:17;38.93;;;33.33;;
23682;SDS011;24897;53.514;10.482;2023-02-28T08:33:01;39.00;;;33.40;;
23682;SDS011;24897;53.514;10.482;2023-02-28T08:35:45;35.40;;;31.70;;
23682;SDS011;24897;53.514;10.482;2023-02-28T08:38:29;33.90;;;30.20;;
23682;SDS011;24897;53.514;10.482;2023-02-28T08:41:14;35.83;;;31.93;;
23682;SDS011;24897;53.514;10.482;2023-02-28T08:43:58;31.73;;;28.40;;
23682;SDS011;24897;53.514;10.482;2023-02-28T08:46:43;31.00;;;27.87;;
23682;SDS011;24897;53.514;10.482;2023-02-28T08:49:27;32.47;;;29.50;;
23682;SDS011;24897;53.514;10.482;2023-02-28T08:52:12;27.07;;;24.63;;
23682;SDS011;24897;53.514;10.482;2023-02-28T08:54:56;23.80;;;21.60;;
23682;SDS011;24897;53.514;10.482;2023-02-28T08:57:41;22.03;;;20.07;;
23682;SDS011;24897;53.514;10.482;2023-02-28T09:00:24;20.43;;;18.63;;
23682;SDS011;24897;53.514;10.482;2023-02-28T09:03:09;19.57;;;17.73;;
23682;SDS011;24897;53.514;10.482;2023-02-28T09:05:57;18.57;;;16.97;;
23682;SDS011;24897;53.514;10.482;2023-02-28T09:08:45;20.47;;;18.77;;
23682;SDS011;24897;53.514;10.482;2023-02-28T09:11:29;17.87;;;16.43;;
23682;SDS011;24897;53.514;10.482;2023-02-28T09:14:14;17.43;;;16.00;;
23682;SDS011;24897;53.514;10.482;2023-02-28T09:16:58;16.73;;;15.37;;
23682;SDS011;24897;53.514;10.482;2023-02-28T09:19:42;16.57;;;15.27;;
23682;SDS011;24897;53.514;10.482;2023-02-28T09:22:27;16.83;;;15.43;;
23682;SDS011;24897;53.514;10.482;2023-02-28T09:25:11;16.57;;;15.17;;
23682;SDS011;24897;53.514;10.482;2023-02-28T09:27:55;15.73;;;14.53;;
23682;SDS011;24897;53.514;10.482;2023-02-28T09:30:40;16.27;;;15.07;;
23682;SDS011;24897;53.514;10.482;2023-02-28T09:33:24;15.77;;;14.57;;
23682;SDS011;24897;53.514;10.482;2023-02-28T09:36:09;15.47;;;14.37;;
23682;SDS011;24897;53.514;10.482;2023-02-28T09:38:53;15.57;;;14.47;;
23682;SDS011;24897;53.514;10.482;2023-02-28T09:41:47;15.77;;;14.57;;
23682;SDS011;24897;53.514;10.482;2023-02-28T09:44:38;16.40;;;15.07;;
23682;SDS011;24897;53.514;10.482;2023-02-28T09:47:31;16.47;;;15.23;;
23682;SDS011;24897;53.514;10.482;2023-02-28T09:53:13;15.60;;;14.40;;
23682;SDS011;24897;53.514;10.482;2023-02-28T09:56:04;15.40;;;14.20;;
23682;SDS011;24897;53.514;10.482;2023-02-28T09:59:02;15.67;;;14.47;;
23682;SDS011;24897;53.514;10.482;2023-02-28T10:05:17;16.70;;;15.40;;
23682;SDS011;24897;53.514;10.482;2023-02-28T10:08:08;15.83;;;14.63;;
23682;SDS011;24897;53.514;10.482;2023-02-28T10:10:55;16.10;;;14.90;;
23682;SDS011;24897;53.514;10.482;2023-02-28T10:13:46;16.77;;;15.40;;
23682;SDS011;24897;53.514;10.482;2023-02-28T10:19:42;16.67;;;15.30;;
23682;SDS011;24897;53.514;10.482;2023-02-28T10:26:12;15.97;;;14.83;;
23682;SDS011;24897;53.514;10.482;2023-02-28T10:28:59;16.70;;;15.30;;
23682;SDS011;24897;53.514;10.482;2023-02-28T10:31:44;16.83;;;15.53;;
23682;SDS011;24897;53.514;10.482;2023-02-28T10:34:28;17.70;;;16.20;;
23682;SDS011;24897;53.514;10.482;2023-02-28T10:37:13;16.50;;;15.20;;
23682;SDS011;24897;53.514;10.482;2023-02-28T10:39:57;18.00;;;16.20;;
23682;SDS011;24897;53.514;10.482;2023-02-28T10:42:41;16.67;;;15.37;;
23682;SDS011;24897;53.514;10.482;2023-02-28T10:45:27;16.20;;;14.90;;
23682;SDS011;24897;53.514;10.482;2023-02-28T10:50:58;15.93;;;14.73;;
23682;SDS011;24897;53.514;10.482;2023-02-28T10:56:27;16.67;;;15.37;;
23682;SDS011;24897;53.514;10.482;2023-02-28T11:02:31;16.10;;;14.90;;
23682;SDS011;24897;53.514;10.482;2023-02-28T11:05:27;17.20;;;15.90;;
23682;SDS011;24897;53.514;10.482;2023-02-28T11:08:16;17.27;;;15.77;;
23682;SDS011;24897;53.514;10.482;2023-02-28T11:11:03;16.50;;;15.20;;
23682;SDS011;24897;53.514;10.482;2023-02-28T11:13:51;16.30;;;15.00;;
23682;SDS011;24897;53.514;10.482;2023-02-28T11:16:38;17.17;;;15.80;;
23682;SDS011;24897;53.514;10.482;2023-02-28T11:19:23;18.07;;;16.67;;
23682;SDS011;24897;53.514;10.482;2023-02-28T11:22:11;18.87;;;17.20;;
23682;SDS011;24897;53.514;10.482;2023-02-28T11:25:07;17.80;;;16.47;;
23682;SDS011;24897;53.514;10.482;2023-02-28T11:28:00;17.73;;;16.43;;
23682;SDS011;24897;53.514;10.482;2023-02-28T11:31:35;17.60;;;16.40;;
23682;SDS011;24897;53.514;10.482;2023-02-28T11:33:59;18.20;;;16.80;;
23682;SDS011;24897;53.514;10.482;2023-02-28T11:36:44;18.10;;;16.80;;
23682;SDS011;24897;53.514;10.482;2023-02-28T11:39:28;18.10;;;16.70;;
23682;SDS011;24897;53.514;10.482;2023-02-28T11:45:21;15.83;;;14.63;;
23682;SDS011;24897;53.514;10.482;2023-02-28T11:48:22;17.20;;;15.80;;
23682;SDS011;24897;53.514;10.482;2023-02-28T12:03:44;16.40;;;15.03;;
23682;SDS011;24897;53.514;10.482;2023-02-28T12:28:34;16.63;;;15.27;;
23682;SDS011;24897;53.514;10.482;2023-02-28T12:31:29;16.37;;;15.00;;
23682;SDS011;24897;53.514;10.482;2023-02-28T12:34:20;16.77;;;15.37;;
23682;SDS011;24897;53.514;10.482;2023-02-28T12:37:10;16.80;;;15.50;;
23682;SDS011;24897;53.514;10.482;2023-02-28T12:40:03;15.97;;;14.70;;
23682;SDS011;24897;53.514;10.482;2023-02-28T12:42:56;16.97;;;15.47;;
23682;SDS011;24897;53.514;10.482;2023-02-28T12:46:02;16.17;;;14.97;;
23682;SDS011;24897;53.514;10.482;2023-02-28T12:49:06;16.73;;;15.33;;
23682;SDS011;24897;53.514;10.482;2023-02-28T12:51:54;16.13;;;14.93;;
23682;SDS011;24897;53.514;10.482;2023-02-28T13:00:38;16.33;;;15.03;;
23682;SDS011;24897;53.514;10.482;2023-02-28T13:09:39;16.07;;;14.87;;
23682;SDS011;24897;53.514;10.482;2023-02-28T13:12:24;16.17;;;14.97;;
23682;SDS011;24897;53.514;10.482;2023-02-28T13:15:17;15.87;;;14.77;;
23682;SDS011;24897;53.514;10.482;2023-02-28T13:18:26;16.27;;;14.97;;
23682;SDS011;24897;53.514;10.482;2023-02-28T13:21:24;16.77;;;15.47;;
23682;SDS011;24897;53.514;10.482;2023-02-28T13:24:35;16.00;;;14.70;;
23682;SDS011;24897;53.514;10.482;2023-02-28T13:27:34;16.17;;;14.97;;
23682;SDS011;24897;53.514;10.482;2023-02-28T13:36:40;16.23;;;14.93;;
23682;SDS011;24897;53.514;10.482;2023-02-28T13:45:24;15.90;;;14.60;;
23682;SDS011;24897;53.514;10.482;2023-02-28T13:48:19;16.13;;;14.83;;
23682;SDS011;24897;53.514;10.482;2023-02-28T13:51:28;15.87;;;14.77;;
23682;SDS011;24897;53.514;10.482;2023-02-28T14:00:21;15.40;;;14.30;;
23682;SDS011;24897;53.514;10.482;2023-02-28T14:06:32;15.90;;;14.60;;
23682;SDS011;24897;53.514;10.482;2023-02-28T14:18:27;15.80;;;14.60;;
23682;SDS011;24897;53.514;10.482;2023-02-28T14:21:22;16.13;;;14.83;;
23682;SDS011;24897;53.514;10.482;2023-02-28T14:24:24;15.73;;;14.53;;
23682;SDS011;24897;53.514;10.482;2023-02-28T14:31:06;16.20;;;14.90;;
23682;SDS011;24897;53.514;10.482;2023-02-28T14:36:46;15.30;;;14.07;;
23682;SDS011;24897;53.514;10.482;2023-02-28T14:39:31;16.00;;;14.70;;
23682;SDS011;24897;53.514;10.482;2023-02-28T14:42:35;16.30;;;14.90;;
23682;SDS011;24897;53.514;10.482;2023-02-28T14:45:22;16.33;;;15.00;;
23682;SDS011;24897;53.514;10.482;2023-02-28T14:48:08;15.87;;;14.57;;
23682;SDS011;24897;53.514;10.482;2023-02-28T14:50:54;16.27;;;15.00;;
23682;SDS011;24897;53.514;10.482;2023-02-28T14:53:40;16.23;;;14.87;;
23682;SDS011;24897;53.514;10.482;2023-02-28T14:56:38;15.90;;;14.60;;
23682;SDS011;24897;53.514;10.482;2023-02-28T14:59:24;16.70;;;15.30;;
23682;SDS011;24897;53.514;10.482;2023-02-28T15:08:06;15.80;;;14.60;;
23682;SDS011;24897;53.514;10.482;2023-02-28T15:10:59;16.10;;;14.80;;
23682;SDS011;24897;53.514;10.482;2023-02-28T15:13:48;15.70;;;14.30;;
23682;SDS011;24897;53.514;10.482;2023-02-28T15:16:37;16.13;;;14.87;;
23682;SDS011;24897;53.514;10.482;2023-02-28T15:19:35;15.80;;;14.50;;
23682;SDS011;24897;53.514;10.482;2023-02-28T15:22:26;15.97;;;14.67;;
23682;SDS011;24897;53.514;10.482;2023-02-28T15:25:19;15.80;;;14.50;;
23682;SDS011;24897;53.514;10.482;2023-02-28T15:28:04;15.33;;;14.13;;
23682;SDS011;24897;53.514;10.482;2023-02-28T15:30:53;16.17;;;14.87;;
23682;SDS011;24897;53.514;10.482;2023-02-28T15:33:38;16.30;;;15.00;;
23682;SDS011;24897;53.514;10.482;2023-02-28T15:36:39;15.80;;;14.60;;
23682;SDS011;24897;53.514;10.482;2023-02-28T15:39:25;16.20;;;14.83;;
23682;SDS011;24897;53.514;10.482;2023-02-28T15:42:11;16.00;;;14.70;;
23682;SDS011;24897;53.514;10.482;2023-02-28T15:44:56;15.97;;;14.67;;
23682;SDS011;24897;53.514;10.482;2023-02-28T15:47:44;15.50;;;14.20;;
23682;SDS011;24897;53.514;10.482;2023-02-28T15:50:29;15.30;;;14.10;;
23682;SDS011;24897;53.514;10.482;2023-02-28T15:53:19;15.53;;;14.30;;
23682;SDS011;24897;53.514;10.482;2023-02-28T15:56:22;15.73;;;14.33;;
23682;SDS011;24897;53.514;10.482;2023-02-28T15:59:13;15.13;;;13.93;;
23682;SDS011;24897;53.514;10.482;2023-02-28T16:02:15;15.47;;;14.27;;
23682;SDS011;24897;53.514;10.482;2023-02-28T16:07:55;16.17;;;14.87;;
23682;SDS011;24897;53.514;10.482;2023-02-28T16:10:41;15.50;;;14.30;;
23682;SDS011;24897;53.514;10.482;2023-02-28T16:13:26;15.60;;;14.30;;
23682;SDS011;24897;53.514;10.482;2023-02-28T16:16:14;15.40;;;14.20;;
23682;SDS011;24897;53.514;10.482;2023-02-28T16:19:03;15.87;;;14.47;;
23682;SDS011;24897;53.514;10.482;2023-02-28T16:21:47;16.30;;;15.00;;
23682;SDS011;24897;53.514;10.482;2023-02-28T16:24:31;15.77;;;14.37;;
23682;SDS011;24897;53.514;10.482;2023-02-28T16:27:27;16.83;;;15.40;;
23682;SDS011;24897;53.514;10.482;2023-02-28T16:30:20;16.30;;;14.90;;
23682;SDS011;24897;53.514;10.482;2023-02-28T16:33:07;16.53;;;15.13;;
23682;SDS011;24897;53.514;10.482;2023-02-28T16:35:52;15.00;;;13.77;;
23682;SDS011;24897;53.514;10.482;2023-02-28T16:38:36;15.70;;;14.50;;
23682;SDS011;24897;53.514;10.482;2023-02-28T16:41:20;15.20;;;13.90;;
23682;SDS011;24897;53.514;10.482;2023-02-28T16:44:09;15.37;;;14.17;;
23682;SDS011;24897;53.514;10.482;2023-02-28T16:46:56;16.23;;;14.93;;
23682;SDS011;24897;53.514;10.482;2023-02-28T16:49:43;16.00;;;14.60;;
23682;SDS011;24897;53.514;10.482;2023-02-28T16:52:27;16.77;;;15.27;;
23682;SDS011;24897;53.514;10.482;2023-02-28T16:55:11;17.47;;;15.67;;
23682;SDS011;24897;53.514;10.482;2023-02-28T16:57:57;17.73;;;15.93;;
23682;SDS011;24897;53.514;10.482;2023-02-28T17:00:43;17.17;;;15.63;;
23682;SDS011;24897;53.514;10.482;2023-02-28T17:03:27;17.57;;;15.83;;
23682;SDS011;24897;53.514;10.482;2023-02-28T17:06:17;17.97;;;16.17;;
23682;SDS011;24897;53.514;10.482;2023-02-28T17:09:05;17.30;;;15.70;;
23682;SDS011;24897;53.514;10.482;2023-02-28T17:11:58;17.37;;;15.77;;
23682;SDS011;24897;53.514;10.482;2023-02-28T17:14:43;17.50;;;15.83;;
23682;SDS011;24897;53.514;10.482;2023-02-28T17:17:27;17.30;;;15.80;;
23682;SDS011;24897;53.514;10.482;2023-02-28T17:20:17;19.30;;;17.40;;
23682;SDS011;24897;53.514;10.482;2023-02-28T17:23:09;18.07;;;16.37;;
23682;SDS011;24897;53.514;10.482;2023-02-28T17:25:53;18.73;;;16.77;;
23682;SDS011;24897;53.514;10.482;2023-02-28T17:28:37;19.93;;;17.77;;
23682;SDS011;24897;53.514;10.482;2023-02-28T17:31:23;20.10;;;18.00;;
23682;SDS011;24897;53.514;10.482;2023-02-28T17:34:08;19.93;;;17.80;;
23682;SDS011;24897;53.514;10.482;2023-02-28T17:36:52;20.67;;;18.67;;
23682;SDS011;24897;53.514;10.482;2023-02-28T17:39:37;22.23;;;20.03;;
23682;SDS011;24897;53.514;10.482;2023-02-28T17:42:21;21.50;;;19.37;;
23682;SDS011;24897;53.514;10.482;2023-02-28T17:45:05;22.80;;;20.47;;
23682;SDS011;24897;53.514;10.482;2023-02-28T17:47:49;22.00;;;19.90;;
23682;SDS011;24897;53.514;10.482;2023-02-28T17:50:33;19.13;;;17.33;;
23682;SDS011;24897;53.514;10.482;2023-02-28T17:53:18;20.13;;;18.03;;
23682;SDS011;24897;53.514;10.482;2023-02-28T17:56:03;19.37;;;17.57;;
23682;SDS011;24897;53.514;10.482;2023-02-28T17:58:48;20.70;;;18.60;;
23682;SDS011;24897;53.514;10.482;2023-02-28T18:01:33;22.20;;;19.97;;
23682;SDS011;24897;53.514;10.482;2023-02-28T18:04:17;23.17;;;20.77;;
23682;SDS011;24897;53.514;10.482;2023-02-28T18:07:01;26.07;;;22.07;;
23682;SDS011;24897;53.514;10.482;2023-02-28T18:09:46;28.80;;;22.50;;
23682;SDS011;24897;53.514;10.482;2023-02-28T18:12:30;38.03;;;27.43;;
23682;SDS011;24897;53.514;10.482;2023-02-28T18:15:15;34.00;;;26.37;;
23682;SDS011;24897;53.514;10.482;2023-02-28T18:18:01;34.37;;;26.17;;
23682;SDS011;24897;53.514;10.482;2023-02-28T18:20:46;31.77;;;24.27;;
23682;SDS011;24897;53.514;10.482;2023-02-28T18:23:33;29.60;;;23.57;;
23682;SDS011;24897;53.514;10.482;2023-02-28T18:26:18;44.93;;;32.27;;
23682;SDS011;24897;53.514;10.482;2023-02-28T18:29:06;34.23;;;24.67;;
23682;SDS011;24897;53.514;10.482;2023-02-28T18:31:51;37.00;;;28.50;;